sensor_id;sensor_type;location;lat;lon;timestamp;temperature;humidity
19799;DHT22;10059;59.850;10.454;2022-11-15T00:01:33;6.00;99.90
19799;DHT22;10059;59.850;10.454;2022-11-15T00:04:00;6.00;99.90
19799;DHT22;10059;59.850;10.454;2022-11-15T00:06:28;6.00;99.90
19799;DHT22;10059;59.850;10.454;2022-11-15T00:08:57;5.80;99.90
19799;DHT22;10059;59.850;10.454;2022-11-15T00:11:24;5.90;99.90
19799;DHT22;10059;59.850;10.454;2022-11-15T00:13:51;5.90;99.90
19799;DHT22;10059;59.850;10.454;2022-11-15T00:16:18;5.90;99.90
19799;DHT22;10059;59.850;10.454;2022-11-15T00:18:45;6.00;99.90
19799;DHT22;10059;59.850;10.454;2022-11-15T00:21:13;5.90;99.90
19799;DHT22;10059;59.850;10.454;2022-11-15T00:23:42;5.90;99.90
19799;DHT22;10059;59.850;10.454;2022-11-15T00:26:11;5.90;99.90
19799;DHT22;10059;59.850;10.454;2022-11-15T00:28:38;5.70;99.90
19799;DHT22;10059;59.850;10.454;2022-11-15T00:31:08;5.50;99.90
19799;DHT22;10059;59.850;10.454;2022-11-15T00:33:35;5.50;99.90
19799;DHT22;10059;59.850;10.454;2022-11-15T00:36:03;5.30;99.90
19799;DHT22;10059;59.850;10.454;2022-11-15T00:38:31;5.20;99.90
19799;DHT22;10059;59.850;10.454;2022-11-15T00:41:00;5.00;99.90
19799;DHT22;10059;59.850;10.454;2022-11-15T00:43:27;4.90;99.90
19799;DHT22;10059;59.850;10.454;2022-11-15T00:45:55;5.00;99.90
19799;DHT22;10059;59.850;10.454;2022-11-15T00:48:22;4.90;99.90
19799;DHT22;10059;59.850;10.454;2022-11-15T00:50:49;4.80;99.90
19799;DHT22;10059;59.850;10.454;2022-11-15T00:53:16;4.80;99.90
19799;DHT22;10059;59.850;10.454;2022-11-15T00:55:43;4.80;99.90
19799;DHT22;10059;59.850;10.454;2022-11-15T00:58:11;4.80;99.90
19799;DHT22;10059;59.850;10.454;2022-11-15T01:00:38;4.80;99.90
19799;DHT22;10059;59.850;10.454;2022-11-15T01:03:05;4.80;99.90
19799;DHT22;10059;59.850;10.454;2022-11-15T01:05:32;4.90;99.90
19799;DHT22;10059;59.850;10.454;2022-11-15T01:07:59;4.90;99.90
19799;DHT22;10059;59.850;10.454;2022-11-15T01:10:26;5.00;99.90
19799;DHT22;10059;59.850;10.454;2022-11-15T01:12:53;5.00;99.90
19799;DHT22;10059;59.850;10.454;2022-11-15T01:15:21;5.00;99.90
19799;DHT22;10059;59.850;10.454;2022-11-15T01:17:50;5.10;99.90
19799;DHT22;10059;59.850;10.454;2022-11-15T01:20:18;5.20;99.90
19799;DHT22;10059;59.850;10.454;2022-11-15T01:22:45;5.20;99.90
19799;DHT22;10059;59.850;10.454;2022-11-15T01:25:12;5.20;99.90
19799;DHT22;10059;59.850;10.454;2022-11-15T01:27:39;5.20;99.90
19799;DHT22;10059;59.850;10.454;2022-11-15T01:30:07;5.20;99.90
19799;DHT22;10059;59.850;10.454;2022-11-15T01:32:36;5.10;99.90
19799;DHT22;10059;59.850;10.454;2022-11-15T01:35:03;5.20;99.90
19799;DHT22;10059;59.850;10.454;2022-11-15T01:37:30;5.20;99.90
19799;DHT22;10059;59.850;10.454;2022-11-15T01:39:57;5.30;99.90
19799;DHT22;10059;59.850;10.454;2022-11-15T01:42:24;5.30;99.90
19799;DHT22;10059;59.850;10.454;2022-11-15T01:44:51;5.40;99.90
19799;DHT22;10059;59.850;10.454;2022-11-15T01:47:22;5.30;99.90
19799;DHT22;10059;59.850;10.454;2022-11-15T01:49:54;5.20;99.90
19799;DHT22;10059;59.850;10.454;2022-11-15T01:52:25;5.20;99.90
19799;DHT22;10059;59.850;10.454;2022-11-15T01:54:56;5.10;99.90
19799;DHT22;10059;59.850;10.454;2022-11-15T01:57:25;5.00;99.90
19799;DHT22;10059;59.850;10.454;2022-11-15T01:59:51;5.00;99.90
19799;DHT22;10059;59.850;10.454;2022-11-15T02:02:18;4.90;99.90
19799;DHT22;10059;59.850;10.454;2022-11-15T02:04:46;4.90;99.90
19799;DHT22;10059;59.850;10.454;2022-11-15T02:07:17;5.00;99.90
19799;DHT22;10059;59.850;10.454;2022-11-15T02:09:45;4.80;99.90
19799;DHT22;10059;59.850;10.454;2022-11-15T02:12:16;4.70;99.90
19799;DHT22;10059;59.850;10.454;2022-11-15T02:14:48;4.80;99.90
19799;DHT22;10059;59.850;10.454;2022-11-15T02:20:41;4.80;99.90
19799;DHT22;10059;59.850;10.454;2022-11-15T02:26:33;4.70;99.90
19799;DHT22;10059;59.850;10.454;2022-11-15T02:29:04;4.80;99.90
19799;DHT22;10059;59.850;10.454;2022-11-15T02:31:40;4.70;99.90
19799;DHT22;10059;59.850;10.454;2022-11-15T02:34:19;4.80;99.90
19799;DHT22;10059;59.850;10.454;2022-11-15T02:36:54;4.80;99.90
19799;DHT22;10059;59.850;10.454;2022-11-15T02:39:32;4.70;99.90
19799;DHT22;10059;59.850;10.454;2022-11-15T02:42:03;4.70;99.90
19799;DHT22;10059;59.850;10.454;2022-11-15T02:44:51;4.80;99.90
19799;DHT22;10059;59.850;10.454;2022-11-15T02:47:20;4.90;99.90
19799;DHT22;10059;59.850;10.454;2022-11-15T02:49:52;4.90;99.90
19799;DHT22;10059;59.850;10.454;2022-11-15T02:52:22;5.00;99.90
19799;DHT22;10059;59.850;10.454;2022-11-15T02:54:54;5.00;99.90
19799;DHT22;10059;59.850;10.454;2022-11-15T02:57:30;4.90;99.90
19799;DHT22;10059;59.850;10.454;2022-11-15T03:00:06;5.00;99.90
19799;DHT22;10059;59.850;10.454;2022-11-15T03:02:55;4.90;99.90
19799;DHT22;10059;59.850;10.454;2022-11-15T03:05:29;5.00;99.90
19799;DHT22;10059;59.850;10.454;2022-11-15T03:08:02;5.00;99.90
19799;DHT22;10059;59.850;10.454;2022-11-15T03:10:39;4.90;99.90
19799;DHT22;10059;59.850;10.454;2022-11-15T03:13:14;4.90;99.90
19799;DHT22;10059;59.850;10.454;2022-11-15T03:15:46;4.70;99.90
19799;DHT22;10059;59.850;10.454;2022-11-15T03:18:22;4.60;99.90
19799;DHT22;10059;59.850;10.454;2022-11-15T03:20:55;4.70;99.90
19799;DHT22;10059;59.850;10.454;2022-11-15T03:23:24;4.80;99.90
19799;DHT22;10059;59.850;10.454;2022-11-15T03:25:52;4.80;99.90
19799;DHT22;10059;59.850;10.454;2022-11-15T03:28:23;4.80;99.90
19799;DHT22;10059;59.850;10.454;2022-11-15T03:30:51;4.80;99.90
19799;DHT22;10059;59.850;10.454;2022-11-15T03:33:21;4.90;99.90
19799;DHT22;10059;59.850;10.454;2022-11-15T03:35:49;4.90;99.90
19799;DHT22;10059;59.850;10.454;2022-11-15T03:38:20;4.80;99.90
19799;DHT22;10059;59.850;10.454;2022-11-15T03:40:54;4.90;99.90
19799;DHT22;10059;59.850;10.454;2022-11-15T03:43:30;4.80;99.90
19799;DHT22;10059;59.850;10.454;2022-11-15T03:46:04;4.70;99.90
19799;DHT22;10059;59.850;10.454;2022-11-15T03:48:37;4.80;99.90
19799;DHT22;10059;59.850;10.454;2022-11-15T03:51:06;4.90;99.90
19799;DHT22;10059;59.850;10.454;2022-11-15T03:53:33;4.90;99.90
19799;DHT22;10059;59.850;10.454;2022-11-15T03:56:00;5.00;99.90
19799;DHT22;10059;59.850;10.454;2022-11-15T03:58:27;4.90;99.90
19799;DHT22;10059;59.850;10.454;2022-11-15T04:00:54;5.00;99.90
19799;DHT22;10059;59.850;10.454;2022-11-15T04:03:21;5.00;99.90
19799;DHT22;10059;59.850;10.454;2022-11-15T04:05:49;4.80;99.90
19799;DHT22;10059;59.850;10.454;2022-11-15T04:08:16;4.90;99.90
19799;DHT22;10059;59.850;10.454;2022-11-15T04:10:43;4.90;99.90
19799;DHT22;10059;59.850;10.454;2022-11-15T04:13:10;4.90;99.90
19799;DHT22;10059;59.850;10.454;2022-11-15T04:15:37;4.80;99.90
19799;DHT22;10059;59.850;10.454;2022-11-15T04:18:04;4.90;99.90
19799;DHT22;10059;59.850;10.454;2022-11-15T04:20:31;4.90;99.90
19799;DHT22;10059;59.850;10.454;2022-11-15T04:23:18;4.80;99.90
19799;DHT22;10059;59.850;10.454;2022-11-15T04:26:04;4.80;99.90
19799;DHT22;10059;59.850;10.454;2022-11-15T04:28:32;4.70;99.90
19799;DHT22;10059;59.850;10.454;2022-11-15T04:30:59;4.70;99.90
19799;DHT22;10059;59.850;10.454;2022-11-15T04:33:29;4.70;99.90
19799;DHT22;10059;59.850;10.454;2022-11-15T04:35:56;4.70;99.90
19799;DHT22;10059;59.850;10.454;2022-11-15T04:38:41;4.80;99.90
19799;DHT22;10059;59.850;10.454;2022-11-15T04:41:08;4.80;99.90
19799;DHT22;10059;59.850;10.454;2022-11-15T04:43:35;4.90;99.90
19799;DHT22;10059;59.850;10.454;2022-11-15T04:46:04;4.90;99.90
19799;DHT22;10059;59.850;10.454;2022-11-15T04:48:31;4.90;99.90
19799;DHT22;10059;59.850;10.454;2022-11-15T04:50:58;4.80;99.90
19799;DHT22;10059;59.850;10.454;2022-11-15T04:53:25;4.80;99.90
19799;DHT22;10059;59.850;10.454;2022-11-15T04:55:53;4.80;99.90
19799;DHT22;10059;59.850;10.454;2022-11-15T04:58:20;4.80;99.90
19799;DHT22;10059;59.850;10.454;2022-11-15T05:00:47;4.90;99.90
19799;DHT22;10059;59.850;10.454;2022-11-15T05:03:14;5.00;99.90
19799;DHT22;10059;59.850;10.454;2022-11-15T05:05:58;5.00;99.90
19799;DHT22;10059;59.850;10.454;2022-11-15T05:08:25;5.10;99.90
19799;DHT22;10059;59.850;10.454;2022-11-15T05:10:54;5.10;99.90
19799;DHT22;10059;59.850;10.454;2022-11-15T05:13:21;5.10;99.90
19799;DHT22;10059;59.850;10.454;2022-11-15T05:15:47;5.10;99.90
19799;DHT22;10059;59.850;10.454;2022-11-15T05:18:14;5.20;99.90
19799;DHT22;10059;59.850;10.454;2022-11-15T05:20:41;5.20;99.90
19799;DHT22;10059;59.850;10.454;2022-11-15T05:23:08;5.20;99.90
19799;DHT22;10059;59.850;10.454;2022-11-15T05:25:36;5.20;99.90
19799;DHT22;10059;59.850;10.454;2022-11-15T05:28:04;5.30;99.90
19799;DHT22;10059;59.850;10.454;2022-11-15T05:30:31;5.30;99.90
19799;DHT22;10059;59.850;10.454;2022-11-15T05:32:58;5.20;99.90
19799;DHT22;10059;59.850;10.454;2022-11-15T05:35:30;5.30;99.90
19799;DHT22;10059;59.850;10.454;2022-11-15T05:37:58;5.30;99.90
19799;DHT22;10059;59.850;10.454;2022-11-15T05:40:25;5.50;99.90
19799;DHT22;10059;59.850;10.454;2022-11-15T05:42:52;5.40;99.90
19799;DHT22;10059;59.850;10.454;2022-11-15T05:45:21;5.40;99.90
19799;DHT22;10059;59.850;10.454;2022-11-15T05:47:48;5.30;99.90
19799;DHT22;10059;59.850;10.454;2022-11-15T05:50:17;5.30;99.90
19799;DHT22;10059;59.850;10.454;2022-11-15T05:52:46;5.40;99.90
19799;DHT22;10059;59.850;10.454;2022-11-15T05:55:14;5.30;99.90
19799;DHT22;10059;59.850;10.454;2022-11-15T05:57:41;5.40;99.90
19799;DHT22;10059;59.850;10.454;2022-11-15T06:00:09;5.40;99.90
19799;DHT22;10059;59.850;10.454;2022-11-15T06:02:44;5.30;99.90
19799;DHT22;10059;59.850;10.454;2022-11-15T06:05:11;5.20;99.90
19799;DHT22;10059;59.850;10.454;2022-11-15T06:07:38;5.30;99.90
19799;DHT22;10059;59.850;10.454;2022-11-15T06:10:08;5.30;99.90
19799;DHT22;10059;59.850;10.454;2022-11-15T06:12:35;5.40;99.90
19799;DHT22;10059;59.850;10.454;2022-11-15T06:15:03;5.40;99.90
19799;DHT22;10059;59.850;10.454;2022-11-15T06:17:30;5.30;99.90
19799;DHT22;10059;59.850;10.454;2022-11-15T06:19:58;5.40;99.90
19799;DHT22;10059;59.850;10.454;2022-11-15T06:22:25;5.30;99.90
19799;DHT22;10059;59.850;10.454;2022-11-15T06:24:51;5.30;99.90
19799;DHT22;10059;59.850;10.454;2022-11-15T06:27:18;5.30;99.90
19799;DHT22;10059;59.850;10.454;2022-11-15T06:29:45;5.20;99.90
19799;DHT22;10059;59.850;10.454;2022-11-15T06:32:12;5.20;99.90
19799;DHT22;10059;59.850;10.454;2022-11-15T06:34:39;5.10;99.90
19799;DHT22;10059;59.850;10.454;2022-11-15T06:37:07;5.10;99.90
19799;DHT22;10059;59.850;10.454;2022-11-15T06:39:37;5.20;99.90
19799;DHT22;10059;59.850;10.454;2022-11-15T06:42:04;5.20;99.90
19799;DHT22;10059;59.850;10.454;2022-11-15T06:44:30;5.30;99.90
19799;DHT22;10059;59.850;10.454;2022-11-15T06:46:57;5.30;99.90
19799;DHT22;10059;59.850;10.454;2022-11-15T06:49:24;5.40;99.90
19799;DHT22;10059;59.850;10.454;2022-11-15T06:51:51;5.30;99.90
19799;DHT22;10059;59.850;10.454;2022-11-15T06:54:19;5.20;99.90
19799;DHT22;10059;59.850;10.454;2022-11-15T06:56:46;5.30;99.90
19799;DHT22;10059;59.850;10.454;2022-11-15T06:59:13;5.30;99.90
19799;DHT22;10059;59.850;10.454;2022-11-15T07:01:40;5.40;99.90
19799;DHT22;10059;59.850;10.454;2022-11-15T07:04:07;5.50;99.90
19799;DHT22;10059;59.850;10.454;2022-11-15T07:06:34;5.50;99.90
19799;DHT22;10059;59.850;10.454;2022-11-15T07:09:02;5.50;99.90
19799;DHT22;10059;59.850;10.454;2022-11-15T07:11:30;5.40;99.90
19799;DHT22;10059;59.850;10.454;2022-11-15T07:13:57;5.40;99.90
19799;DHT22;10059;59.850;10.454;2022-11-15T07:16:24;5.40;99.90
19799;DHT22;10059;59.850;10.454;2022-11-15T07:18:51;5.40;99.90
19799;DHT22;10059;59.850;10.454;2022-11-15T07:21:18;5.30;99.90
19799;DHT22;10059;59.850;10.454;2022-11-15T07:23:44;5.30;99.90
19799;DHT22;10059;59.850;10.454;2022-11-15T07:26:11;5.20;99.90
19799;DHT22;10059;59.850;10.454;2022-11-15T07:28:40;5.20;99.90
19799;DHT22;10059;59.850;10.454;2022-11-15T07:31:08;5.20;99.90
19799;DHT22;10059;59.850;10.454;2022-11-15T07:33:35;5.30;99.90
19799;DHT22;10059;59.850;10.454;2022-11-15T07:36:04;5.20;99.90
19799;DHT22;10059;59.850;10.454;2022-11-15T07:38:32;5.30;99.90
19799;DHT22;10059;59.850;10.454;2022-11-15T07:41:00;5.30;99.90
19799;DHT22;10059;59.850;10.454;2022-11-15T07:43:28;5.30;99.90
19799;DHT22;10059;59.850;10.454;2022-11-15T07:45:56;5.30;99.90
19799;DHT22;10059;59.850;10.454;2022-11-15T07:48:23;5.30;99.90
19799;DHT22;10059;59.850;10.454;2022-11-15T07:50:50;5.30;99.90
19799;DHT22;10059;59.850;10.454;2022-11-15T07:53:17;5.30;99.90
19799;DHT22;10059;59.850;10.454;2022-11-15T07:55:44;5.30;99.90
19799;DHT22;10059;59.850;10.454;2022-11-15T07:58:12;5.40;99.90
19799;DHT22;10059;59.850;10.454;2022-11-15T08:00:39;5.30;99.90
19799;DHT22;10059;59.850;10.454;2022-11-15T08:03:08;5.40;99.90
19799;DHT22;10059;59.850;10.454;2022-11-15T08:05:36;5.50;99.90
19799;DHT22;10059;59.850;10.454;2022-11-15T08:08:05;5.50;99.90
19799;DHT22;10059;59.850;10.454;2022-11-15T08:10:32;5.50;99.90
19799;DHT22;10059;59.850;10.454;2022-11-15T08:12:59;5.50;99.90
19799;DHT22;10059;59.850;10.454;2022-11-15T08:15:27;5.40;99.90
19799;DHT22;10059;59.850;10.454;2022-11-15T08:17:54;5.30;99.90
19799;DHT22;10059;59.850;10.454;2022-11-15T08:20:23;5.30;99.90
19799;DHT22;10059;59.850;10.454;2022-11-15T08:22:51;5.20;99.90
19799;DHT22;10059;59.850;10.454;2022-11-15T08:25:18;5.10;99.90
19799;DHT22;10059;59.850;10.454;2022-11-15T08:27:45;5.10;99.90
19799;DHT22;10059;59.850;10.454;2022-11-15T08:30:12;5.10;99.90
19799;DHT22;10059;59.850;10.454;2022-11-15T08:32:41;5.10;99.90
19799;DHT22;10059;59.850;10.454;2022-11-15T08:35:08;5.10;99.90
19799;DHT22;10059;59.850;10.454;2022-11-15T08:37:36;5.10;99.90
19799;DHT22;10059;59.850;10.454;2022-11-15T08:40:04;5.10;99.90
19799;DHT22;10059;59.850;10.454;2022-11-15T08:42:32;5.10;99.90
19799;DHT22;10059;59.850;10.454;2022-11-15T08:44:59;5.10;99.90
19799;DHT22;10059;59.850;10.454;2022-11-15T08:47:26;5.10;99.90
19799;DHT22;10059;59.850;10.454;2022-11-15T08:49:53;5.10;99.90
19799;DHT22;10059;59.850;10.454;2022-11-15T08:52:20;5.10;99.90
19799;DHT22;10059;59.850;10.454;2022-11-15T08:54:48;5.10;99.90
19799;DHT22;10059;59.850;10.454;2022-11-15T08:57:15;5.20;99.90
19799;DHT22;10059;59.850;10.454;2022-11-15T08:59:42;5.20;99.90
19799;DHT22;10059;59.850;10.454;2022-11-15T09:02:11;5.20;99.90
19799;DHT22;10059;59.850;10.454;2022-11-15T09:04:40;5.10;99.90
19799;DHT22;10059;59.850;10.454;2022-11-15T09:07:07;5.10;99.90
19799;DHT22;10059;59.850;10.454;2022-11-15T09:09:34;5.10;99.90
19799;DHT22;10059;59.850;10.454;2022-11-15T09:12:03;5.10;99.90
19799;DHT22;10059;59.850;10.454;2022-11-15T09:14:30;5.10;99.90
19799;DHT22;10059;59.850;10.454;2022-11-15T09:16:57;5.10;99.90
19799;DHT22;10059;59.850;10.454;2022-11-15T09:19:24;5.10;99.90
19799;DHT22;10059;59.850;10.454;2022-11-15T09:21:51;5.20;99.90
19799;DHT22;10059;59.850;10.454;2022-11-15T09:24:18;5.20;99.90
19799;DHT22;10059;59.850;10.454;2022-11-15T09:26:45;5.30;99.90
19799;DHT22;10059;59.850;10.454;2022-11-15T09:29:14;5.30;99.90
19799;DHT22;10059;59.850;10.454;2022-11-15T09:31:40;5.20;99.90
19799;DHT22;10059;59.850;10.454;2022-11-15T09:34:07;5.20;99.90
19799;DHT22;10059;59.850;10.454;2022-11-15T09:36:34;5.20;99.90
19799;DHT22;10059;59.850;10.454;2022-11-15T09:39:01;5.30;99.90
19799;DHT22;10059;59.850;10.454;2022-11-15T09:41:50;5.30;99.90
19799;DHT22;10059;59.850;10.454;2022-11-15T09:44:30;5.30;99.90
19799;DHT22;10059;59.850;10.454;2022-11-15T09:47:20;5.20;99.90
19799;DHT22;10059;59.850;10.454;2022-11-15T09:49:51;5.30;99.90
19799;DHT22;10059;59.850;10.454;2022-11-15T09:52:19;5.30;99.90
19799;DHT22;10059;59.850;10.454;2022-11-15T09:54:49;5.30;99.90
19799;DHT22;10059;59.850;10.454;2022-11-15T09:57:20;5.30;99.90
19799;DHT22;10059;59.850;10.454;2022-11-15T09:59:58;5.40;99.90
19799;DHT22;10059;59.850;10.454;2022-11-15T10:02:47;5.30;99.90
19799;DHT22;10059;59.850;10.454;2022-11-15T10:05:19;5.40;99.90
19799;DHT22;10059;59.850;10.454;2022-11-15T10:07:53;5.40;99.90
19799;DHT22;10059;59.850;10.454;2022-11-15T10:10:28;5.50;99.90
19799;DHT22;10059;59.850;10.454;2022-11-15T10:12:56;5.50;99.90
19799;DHT22;10059;59.850;10.454;2022-11-15T10:15:25;5.50;99.90
19799;DHT22;10059;59.850;10.454;2022-11-15T10:18:07;5.50;99.90
19799;DHT22;10059;59.850;10.454;2022-11-15T10:20:44;5.40;99.90
19799;DHT22;10059;59.850;10.454;2022-11-15T10:23:14;5.50;99.90
19799;DHT22;10059;59.850;10.454;2022-11-15T10:25:42;5.50;99.90
19799;DHT22;10059;59.850;10.454;2022-11-15T10:28:14;5.50;99.90
19799;DHT22;10059;59.850;10.454;2022-11-15T10:30:43;5.50;99.90
19799;DHT22;10059;59.850;10.454;2022-11-15T10:33:27;5.50;99.90
19799;DHT22;10059;59.850;10.454;2022-11-15T10:36:14;5.50;99.90
19799;DHT22;10059;59.850;10.454;2022-11-15T10:38:53;5.50;99.90
19799;DHT22;10059;59.850;10.454;2022-11-15T10:41:22;5.50;99.90
19799;DHT22;10059;59.850;10.454;2022-11-15T10:44:09;5.50;99.90
19799;DHT22;10059;59.850;10.454;2022-11-15T10:46:40;5.50;99.90
19799;DHT22;10059;59.850;10.454;2022-11-15T10:49:13;5.60;99.90
19799;DHT22;10059;59.850;10.454;2022-11-15T10:51:45;5.50;99.90
19799;DHT22;10059;59.850;10.454;2022-11-15T10:54:22;5.70;99.90
19799;DHT22;10059;59.850;10.454;2022-11-15T10:56:51;5.60;99.90
19799;DHT22;10059;59.850;10.454;2022-11-15T10:59:24;5.50;99.90
19799;DHT22;10059;59.850;10.454;2022-11-15T11:01:54;5.50;99.90
19799;DHT22;10059;59.850;10.454;2022-11-15T11:04:21;5.50;99.90
19799;DHT22;10059;59.850;10.454;2022-11-15T11:06:50;5.50;99.90
19799;DHT22;10059;59.850;10.454;2022-11-15T11:09:28;5.50;99.90
19799;DHT22;10059;59.850;10.454;2022-11-15T11:11:56;5.60;99.90
19799;DHT22;10059;59.850;10.454;2022-11-15T11:14:24;5.50;99.90
19799;DHT22;10059;59.850;10.454;2022-11-15T11:16:57;5.60;99.90
19799;DHT22;10059;59.850;10.454;2022-11-15T11:19:51;5.50;99.90
19799;DHT22;10059;59.850;10.454;2022-11-15T11:22:26;5.50;99.90
19799;DHT22;10059;59.850;10.454;2022-11-15T11:25:08;5.50;99.90
19799;DHT22;10059;59.850;10.454;2022-11-15T11:27:44;5.60;99.90
19799;DHT22;10059;59.850;10.454;2022-11-15T11:30:34;5.50;99.90
19799;DHT22;10059;59.850;10.454;2022-11-15T11:33:16;5.40;99.90
19799;DHT22;10059;59.850;10.454;2022-11-15T11:35:54;5.40;99.90
19799;DHT22;10059;59.850;10.454;2022-11-15T11:38:44;5.40;99.90
19799;DHT22;10059;59.850;10.454;2022-11-15T11:41:24;5.40;99.90
19799;DHT22;10059;59.850;10.454;2022-11-15T11:43:59;5.40;99.90
19799;DHT22;10059;59.850;10.454;2022-11-15T11:46:43;5.50;99.90
19799;DHT22;10059;59.850;10.454;2022-11-15T11:49:18;5.50;99.90
19799;DHT22;10059;59.850;10.454;2022-11-15T11:51:50;5.40;99.90
19799;DHT22;10059;59.850;10.454;2022-11-15T11:54:22;5.40;99.90
19799;DHT22;10059;59.850;10.454;2022-11-15T11:56:50;5.40;99.90
19799;DHT22;10059;59.850;10.454;2022-11-15T11:59:22;5.50;99.90
19799;DHT22;10059;59.850;10.454;2022-11-15T12:01:51;5.50;99.90
19799;DHT22;10059;59.850;10.454;2022-11-15T12:04:23;5.50;99.90
19799;DHT22;10059;59.850;10.454;2022-11-15T12:06:57;5.40;99.90
19799;DHT22;10059;59.850;10.454;2022-11-15T12:09:30;5.40;99.90
19799;DHT22;10059;59.850;10.454;2022-11-15T12:12:03;5.40;99.90
19799;DHT22;10059;59.850;10.454;2022-11-15T12:14:35;5.40;99.90
19799;DHT22;10059;59.850;10.454;2022-11-15T12:17:02;5.40;99.90
19799;DHT22;10059;59.850;10.454;2022-11-15T12:19:31;5.40;99.90
19799;DHT22;10059;59.850;10.454;2022-11-15T12:22:03;5.50;99.90
19799;DHT22;10059;59.850;10.454;2022-11-15T12:24:37;5.60;99.90
19799;DHT22;10059;59.850;10.454;2022-11-15T12:27:08;5.60;99.90
19799;DHT22;10059;59.850;10.454;2022-11-15T12:29:43;5.60;99.90
19799;DHT22;10059;59.850;10.454;2022-11-15T12:32:20;5.60;99.90
19799;DHT22;10059;59.850;10.454;2022-11-15T12:34:52;5.50;99.90
19799;DHT22;10059;59.850;10.454;2022-11-15T12:40:33;5.70;99.90
19799;DHT22;10059;59.850;10.454;2022-11-15T12:43:04;5.60;99.90
19799;DHT22;10059;59.850;10.454;2022-11-15T12:45:33;5.60;99.90
19799;DHT22;10059;59.850;10.454;2022-11-15T12:51:06;5.60;99.90
19799;DHT22;10059;59.850;10.454;2022-11-15T12:53:33;5.60;99.90
19799;DHT22;10059;59.850;10.454;2022-11-15T12:56:21;5.70;99.90
19799;DHT22;10059;59.850;10.454;2022-11-15T12:58:51;5.70;99.90
19799;DHT22;10059;59.850;10.454;2022-11-15T13:01:55;5.60;99.90
19799;DHT22;10059;59.850;10.454;2022-11-15T13:04:26;5.60;99.90
19799;DHT22;10059;59.850;10.454;2022-11-15T13:06:56;5.70;99.90
19799;DHT22;10059;59.850;10.454;2022-11-15T13:09:51;5.80;99.90
19799;DHT22;10059;59.850;10.454;2022-11-15T13:12:54;5.70;99.90
19799;DHT22;10059;59.850;10.454;2022-11-15T13:15:52;5.80;99.90
19799;DHT22;10059;59.850;10.454;2022-11-15T13:18:34;5.80;99.90
19799;DHT22;10059;59.850;10.454;2022-11-15T13:21:03;5.70;99.90
19799;DHT22;10059;59.850;10.454;2022-11-15T13:23:55;5.70;99.90
19799;DHT22;10059;59.850;10.454;2022-11-15T13:26:22;5.70;99.90
19799;DHT22;10059;59.850;10.454;2022-11-15T13:28:51;5.60;99.90
19799;DHT22;10059;59.850;10.454;2022-11-15T13:31:29;5.60;99.90
19799;DHT22;10059;59.850;10.454;2022-11-15T13:33:59;5.60;99.90
19799;DHT22;10059;59.850;10.454;2022-11-15T13:36:29;5.70;99.90
19799;DHT22;10059;59.850;10.454;2022-11-15T13:39:00;5.70;99.90
19799;DHT22;10059;59.850;10.454;2022-11-15T13:41:29;5.60;99.90
19799;DHT22;10059;59.850;10.454;2022-11-15T13:43:57;5.70;99.90
19799;DHT22;10059;59.850;10.454;2022-11-15T13:46:25;5.70;99.90
19799;DHT22;10059;59.850;10.454;2022-11-15T13:48:55;5.70;99.90
19799;DHT22;10059;59.850;10.454;2022-11-15T13:51:30;5.70;99.90
19799;DHT22;10059;59.850;10.454;2022-11-15T13:54:05;5.60;99.90
19799;DHT22;10059;59.850;10.454;2022-11-15T13:56:33;5.70;99.90
19799;DHT22;10059;59.850;10.454;2022-11-15T13:59:08;5.60;99.90
19799;DHT22;10059;59.850;10.454;2022-11-15T14:01:35;5.70;99.90
19799;DHT22;10059;59.850;10.454;2022-11-15T14:04:03;5.70;99.90
19799;DHT22;10059;59.850;10.454;2022-11-15T14:06:30;5.70;99.90
19799;DHT22;10059;59.850;10.454;2022-11-15T14:11:51;5.70;99.90
19799;DHT22;10059;59.850;10.454;2022-11-15T14:14:20;5.70;99.90
19799;DHT22;10059;59.850;10.454;2022-11-15T14:16:49;5.70;99.90
19799;DHT22;10059;59.850;10.454;2022-11-15T14:19:36;5.70;99.90
19799;DHT22;10059;59.850;10.454;2022-11-15T14:22:27;5.70;99.90
19799;DHT22;10059;59.850;10.454;2022-11-15T14:25:16;5.70;99.90
19799;DHT22;10059;59.850;10.454;2022-11-15T14:28:16;5.70;99.90
19799;DHT22;10059;59.850;10.454;2022-11-15T14:30:56;5.70;99.90
19799;DHT22;10059;59.850;10.454;2022-11-15T14:33:25;5.70;99.90
19799;DHT22;10059;59.850;10.454;2022-11-15T14:35:54;5.70;99.90
19799;DHT22;10059;59.850;10.454;2022-11-15T14:38:21;5.60;99.90
19799;DHT22;10059;59.850;10.454;2022-11-15T14:40:49;5.60;99.90
19799;DHT22;10059;59.850;10.454;2022-11-15T14:43:17;5.60;99.90
19799;DHT22;10059;59.850;10.454;2022-11-15T14:45:44;5.60;99.90
19799;DHT22;10059;59.850;10.454;2022-11-15T14:48:11;5.60;99.90
19799;DHT22;10059;59.850;10.454;2022-11-15T14:50:38;5.50;99.90
19799;DHT22;10059;59.850;10.454;2022-11-15T14:53:06;5.50;99.90
19799;DHT22;10059;59.850;10.454;2022-11-15T14:55:34;5.60;99.90
19799;DHT22;10059;59.850;10.454;2022-11-15T14:58:01;5.60;99.90
19799;DHT22;10059;59.850;10.454;2022-11-15T15:00:31;5.60;99.90
19799;DHT22;10059;59.850;10.454;2022-11-15T15:02:58;5.50;99.90
19799;DHT22;10059;59.850;10.454;2022-11-15T15:05:34;5.50;99.90
19799;DHT22;10059;59.850;10.454;2022-11-15T15:08:01;5.50;99.90
19799;DHT22;10059;59.850;10.454;2022-11-15T15:10:32;5.50;99.90
19799;DHT22;10059;59.850;10.454;2022-11-15T15:12:59;5.50;99.90
19799;DHT22;10059;59.850;10.454;2022-11-15T15:15:35;5.50;99.90
19799;DHT22;10059;59.850;10.454;2022-11-15T15:18:03;5.50;99.90
19799;DHT22;10059;59.850;10.454;2022-11-15T15:20:30;5.40;99.90
19799;DHT22;10059;59.850;10.454;2022-11-15T15:22:57;5.40;99.90
19799;DHT22;10059;59.850;10.454;2022-11-15T15:25:29;5.40;99.90
19799;DHT22;10059;59.850;10.454;2022-11-15T15:27:57;5.50;99.90
19799;DHT22;10059;59.850;10.454;2022-11-15T15:30:25;5.40;99.90
19799;DHT22;10059;59.850;10.454;2022-11-15T15:32:53;5.50;99.90
19799;DHT22;10059;59.850;10.454;2022-11-15T15:35:20;5.40;99.90
19799;DHT22;10059;59.850;10.454;2022-11-15T15:37:48;5.40;99.90
19799;DHT22;10059;59.850;10.454;2022-11-15T15:40:17;5.40;99.90
19799;DHT22;10059;59.850;10.454;2022-11-15T15:42:45;5.40;99.90
19799;DHT22;10059;59.850;10.454;2022-11-15T15:45:13;5.30;99.90
19799;DHT22;10059;59.850;10.454;2022-11-15T15:47:40;5.30;99.90
19799;DHT22;10059;59.850;10.454;2022-11-15T15:50:21;5.20;99.90
19799;DHT22;10059;59.850;10.454;2022-11-15T15:52:52;5.20;99.90
19799;DHT22;10059;59.850;10.454;2022-11-15T15:55:20;5.20;99.90
19799;DHT22;10059;59.850;10.454;2022-11-15T15:57:47;5.20;99.90
19799;DHT22;10059;59.850;10.454;2022-11-15T16:00:15;5.20;99.90
19799;DHT22;10059;59.850;10.454;2022-11-15T16:02:42;5.20;99.90
19799;DHT22;10059;59.850;10.454;2022-11-15T16:05:10;5.20;99.90
19799;DHT22;10059;59.850;10.454;2022-11-15T16:07:39;5.10;99.90